Time;durP1;ratioP1;P1;durP2;ratioP2;P2;SDS_P1;SDS_P2;PMS_P1;PMS_P2;Temp;Humidity;BMP_temperature;BMP_pressure;BME280_temperature;BME280_humidity;BME280_pressure;Samples;Min_cycle;Max_cycle;Signal;HPM_P1;HPM_P2
2021/08/16 00:00:17;;;;;;;8.00;5.78;;;;;;;19.49;61.04;99852.00;1708278;84;21035;-77
2021/08/16 00:02:45;;;;;;;10.68;5.62;;;;;;;19.40;61.23;99854.22;1707900;83;20999;-77
2021/08/16 00:05:14;;;;;;;12.60;5.85;;;;;;;19.33;61.45;99853.54;1708532;84;21047;-77
2021/08/16 00:07:41;;;;;;;8.88;6.47;;;;;;;19.26;61.60;99840.69;1708193;83;21468;-77
2021/08/16 00:10:08;;;;;;;9.50;6.25;;;;;;;19.22;61.79;99836.81;1708211;83;21031;-76
2021/08/16 00:12:34;;;;;;;12.78;7.05;;;;;;;19.19;61.92;99841.35;1708486;83;21894;-77
2021/08/16 00:15:00;;;;;;;11.95;6.87;;;;;;;19.14;62.05;99844.50;1708020;83;21491;-76
2021/08/16 00:17:26;;;;;;;13.48;8.18;;;;;;;19.09;62.21;99835.75;1708256;83;21061;-76
2021/08/16 00:19:52;;;;;;;13.22;7.40;;;;;;;19.03;62.33;99835.36;1708177;83;21037;-76
2021/08/16 00:22:18;;;;;;;11.30;6.58;;;;;;;18.99;62.43;99830.66;1708392;83;21007;-77
2021/08/16 00:24:45;;;;;;;11.90;7.30;;;;;;;18.88;62.60;99829.09;1708206;84;21357;-76
2021/08/16 00:27:11;;;;;;;18.12;8.20;;;;;;;18.79;62.87;99817.52;1707973;84;21487;-77
2021/08/16 00:29:37;;;;;;;16.45;8.13;;;;;;;18.70;63.11;99817.08;1708389;83;20959;-77
2021/08/16 00:32:04;;;;;;;10.88;7.75;;;;;;;18.62;63.36;99815.25;1708198;84;21004;-77
2021/08/16 00:34:30;;;;;;;13.05;7.95;;;;;;;18.54;63.63;99811.05;1708131;83;21078;-76
2021/08/16 00:36:56;;;;;;;14.35;8.53;;;;;;;18.47;63.85;99819.22;1708285;84;21157;-76
2021/08/16 00:39:22;;;;;;;14.45;8.28;;;;;;;18.42;64.05;99821.82;1708189;84;21067;-76
2021/08/16 00:41:48;;;;;;;16.73;8.95;;;;;;;18.34;64.21;99822.16;1708273;83;21483;-76
2021/08/16 00:44:14;;;;;;;13.50;8.33;;;;;;;18.28;64.39;99823.11;1708433;83;20994;-76
2021/08/16 00:46:41;;;;;;;12.68;7.42;;;;;;;18.23;64.55;99821.62;1708476;84;21007;-77
2021/08/16 00:49:07;;;;;;;12.25;7.87;;;;;;;18.22;64.70;99827.27;1708193;83;21051;-77
2021/08/16 00:51:36;;;;;;;13.00;8.98;;;;;;;18.13;64.81;99825.43;1708259;83;21016;-77
2021/08/16 00:54:02;;;;;;;13.35;8.40;;;;;;;18.04;65.02;99820.09;1708557;83;21054;-76
2021/08/16 00:56:28;;;;;;;12.63;8.10;;;;;;;17.98;65.23;99820.47;1708140;84;21074;-77
2021/08/16 00:58:57;;;;;;;14.10;8.38;;;;;;;17.94;65.41;99818.50;1708242;83;21082;-76
2021/08/16 01:01:23;;;;;;;11.93;7.72;;;;;;;17.86;65.57;99812.08;1708112;84;21567;-77
2021/08/16 01:03:49;;;;;;;15.30;7.97;;;;;;;17.84;65.79;99812.81;1708173;84;21471;-77
2021/08/16 01:06:15;;;;;;;22.22;9.10;;;;;;;17.81;65.96;99810.59;1708109;83;21058;-76
2021/08/16 01:08:41;;;;;;;15.15;8.83;;;;;;;17.80;66.10;99815.16;1708371;83;21042;-77
2021/08/16 01:11:07;;;;;;;21.80;8.60;;;;;;;17.79;66.23;99818.09;1707839;83;21003;-76
2021/08/16 01:13:33;;;;;;;15.23;8.85;;;;;;;17.74;66.34;99816.08;1708324;84;21477;-76
2021/08/16 01:16:02;;;;;;;17.12;8.80;;;;;;;17.67;66.50;99808.62;1708199;83;20983;-76
2021/08/16 01:18:29;;;;;;;18.67;8.88;;;;;;;17.63;66.63;99806.60;1708441;84;20994;-76
2021/08/16 01:20:55;;;;;;;16.82;8.95;;;;;;;17.61;66.75;99812.77;1708120;84;21015;-76
2021/08/16 01:23:22;;;;;;;14.35;8.53;;;;;;;17.55;66.86;99810.97;1708315;84;21058;-76
2021/08/16 01:25:49;;;;;;;13.22;8.40;;;;;;;17.48;66.96;99802.45;1708392;83;21762;-76
2021/08/16 01:28:18;;;;;;;22.67;9.48;;;;;;;17.43;67.11;99802.83;1707994;84;21063;-76
2021/08/16 01:30:56;;;;;;;17.02;9.20;;;;;;;17.39;67.24;99802.45;1707473;84;21034;-76
2021/08/16 01:33:23;;;;;;;16.42;9.40;;;;;;;17.35;67.37;99798.57;1690967;83;21499;-76
2021/08/16 01:35:49;;;;;;;16.07;9.20;;;;;;;17.32;67.50;99798.20;1708125;83;21019;-76
2021/08/16 01:38:19;;;;;;;16.42;8.88;;;;;;;17.28;67.59;99799.19;1708354;83;21168;-76
2021/08/16 01:40:46;;;;;;;14.78;9.98;;;;;;;17.22;67.71;99796.06;1708165;83;21724;-76
2021/08/16 01:43:12;;;;;;;15.03;9.35;;;;;;;17.19;67.82;99796.52;1708502;83;21039;-76
2021/08/16 01:45:38;;;;;;;18.50;10.15;;;;;;;17.16;67.94;99794.80;1708077;83;21007;-76
2021/08/16 01:48:05;;;;;;;17.45;9.20;;;;;;;17.12;68.02;99793.09;1708308;84;21078;-76
2021/08/16 01:50:31;;;;;;;14.53;9.38;;;;;;;17.09;68.12;99796.24;1708114;83;21214;-76
2021/08/16 01:52:57;;;;;;;18.00;9.45;;;;;;;17.04;68.21;99792.05;1708380;83;20987;-76
2021/08/16 01:55:23;;;;;;;13.90;9.33;;;;;;;16.96;68.28;99796.38;1708222;83;21039;-76
2021/08/16 01:57:50;;;;;;;14.25;8.78;;;;;;;16.90;68.42;99787.34;1708231;83;20996;-76
2021/08/16 02:00:16;;;;;;;12.98;9.20;;;;;;;16.88;68.57;99789.98;1708472;83;20968;-77
2021/08/16 02:02:42;;;;;;;14.35;9.13;;;;;;;16.83;68.69;99785.78;1708180;84;21243;-77
2021/08/16 02:05:09;;;;;;;16.87;10.03;;;;;;;16.81;68.83;99778.46;1708277;83;21189;-77
2021/08/16 02:07:35;;;;;;;16.62;9.55;;;;;;;16.75;68.95;99767.22;1708008;84;21023;-77
2021/08/16 02:10:01;;;;;;;19.50;11.48;;;;;;;16.69;69.06;99769.48;1708536;83;20992;-77
2021/08/16 02:12:27;;;;;;;18.92;9.88;;;;;;;16.61;69.17;99765.73;1708095;84;21022;-77
2021/08/16 02:14:53;;;;;;;15.00;9.50;;;;;;;16.57;69.29;99765.91;1708409;83;21134;-77
2021/08/16 02:17:19;;;;;;;16.52;10.78;;;;;;;16.52;69.45;99761.66;1708360;83;21046;-77
2021/08/16 02:19:47;;;;;;;15.53;10.10;;;;;;;16.46;69.55;99769.61;1708068;84;21066;-77
2021/08/16 02:22:15;;;;;;;21.75;13.35;;;;;;;16.43;69.68;99762.50;1708570;84;21547;-77
2021/08/16 02:24:41;;;;;;;24.07;13.83;;;;;;;16.40;69.78;99761.06;1708265;84;21030;-77
2021/08/16 02:27:07;;;;;;;15.43;9.85;;;;;;;16.37;69.87;99755.30;1708218;83;21162;-77
2021/08/16 02:29:34;;;;;;;19.02;10.28;;;;;;;16.33;69.98;99762.16;1708029;83;21039;-77
2021/08/16 02:32:00;;;;;;;17.07;10.65;;;;;;;16.29;70.11;99753.72;1708335;84;21066;-77
2021/08/16 02:34:26;;;;;;;19.82;11.33;;;;;;;16.25;70.22;99747.16;1715687;83;21578;-76
2021/08/16 02:36:53;;;;;;;23.32;12.15;;;;;;;16.18;70.32;99744.23;1709306;84;21502;-76
2021/08/16 02:39:19;;;;;;;17.98;11.60;;;;;;;16.12;70.46;99745.09;1709556;84;21927;-77
2021/08/16 02:41:45;;;;;;;17.62;9.83;;;;;;;16.08;70.56;99740.68;1696583;84;21004;-77
2021/08/16 02:44:11;;;;;;;16.12;9.40;;;;;;;16.04;70.64;99737.33;1696929;84;21118;-77
2021/08/16 02:46:37;;;;;;;14.20;9.63;;;;;;;15.98;70.78;99729.61;1681746;85;21071;-77
2021/08/16 02:49:03;;;;;;;28.38;10.68;;;;;;;15.91;70.87;99722.95;1682011;85;21030;-77
2021/08/16 02:51:29;;;;;;;15.58;10.05;;;;;;;15.85;70.98;99723.02;1681938;85;21164;-77
2021/08/16 02:53:55;;;;;;;15.60;9.98;;;;;;;15.82;71.09;99726.14;1681786;85;21071;-76
2021/08/16 02:56:21;;;;;;;19.15;10.35;;;;;;;15.75;71.19;99725.38;1669048;86;21082;-77
2021/08/16 02:58:47;;;;;;;18.30;10.65;;;;;;;15.72;71.32;99725.30;1681750;85;21018;-77
2021/08/16 03:01:13;;;;;;;13.00;9.18;;;;;;;15.69;71.42;99722.23;1682020;85;21078;-77
2021/08/16 03:03:39;;;;;;;14.60;9.98;;;;;;;15.66;71.50;99724.81;1729043;83;21181;-77
2021/08/16 03:06:05;;;;;;;33.45;16.12;;;;;;;15.65;71.58;99712.95;1729533;83;21790;-77
2021/08/16 03:08:35;;;;;;;33.73;14.93;;;;;;;15.61;71.65;99709.88;1729464;83;21460;-76
2021/08/16 03:11:04;;;;;;;17.30;10.35;;;;;;;15.58;71.74;99702.78;1709580;84;21519;-77
2021/08/16 03:13:30;;;;;;;16.52;9.68;;;;;;;15.54;71.81;99702.91;1728547;82;21050;-78
2021/08/16 03:15:56;;;;;;;16.45;10.20;;;;;;;15.52;71.91;99703.66;1729518;83;21063;-78
2021/08/16 03:18:22;;;;;;;18.07;9.60;;;;;;;15.51;72.03;99707.38;1697046;84;21004;-78
2021/08/16 03:20:48;;;;;;;25.10;10.43;;;;;;;15.51;72.08;99715.45;1681775;85;21082;-77
2021/08/16 03:23:14;;;;;;;18.42;10.48;;;;;;;15.49;72.15;99711.10;1681770;85;21053;-78
2021/08/16 03:25:40;;;;;;;16.73;10.98;;;;;;;15.51;72.23;99708.73;1681962;85;21038;-78
2021/08/16 03:28:06;;;;;;;17.30;10.00;;;;;;;15.50;72.29;99709.24;1682068;85;21557;-78
2021/08/16 03:30:32;;;;;;;16.67;10.48;;;;;;;15.48;72.36;99708.10;1681631;85;21538;-78
2021/08/16 03:32:58;;;;;;;21.30;10.40;;;;;;;15.45;72.40;99706.34;1681713;85;21542;-78
2021/08/16 03:35:24;;;;;;;17.85;10.72;;;;;;;15.44;72.48;99700.69;1711128;83;20971;-78
2021/08/16 03:37:50;;;;;;;18.23;10.93;;;;;;;15.43;72.59;99705.23;1711528;83;21372;-77
2021/08/16 03:40:16;;;;;;;17.62;10.72;;;;;;;15.42;72.64;99703.58;1735007;82;21139;-78
2021/08/16 03:42:42;;;;;;;21.07;10.75;;;;;;;15.44;72.75;99706.06;1734957;82;21034;-78
2021/08/16 03:45:11;;;;;;;19.15;10.18;;;;;;;15.44;72.80;99705.55;1734954;82;21500;-78
2021/08/16 03:47:37;;;;;;;17.35;10.00;;;;;;;15.45;72.86;99705.83;1735135;82;20975;-78
2021/08/16 03:50:06;;;;;;;22.80;11.55;;;;;;;15.46;72.92;99704.80;1735075;82;21538;-78
2021/08/16 03:52:33;;;;;;;26.07;11.88;;;;;;;15.45;73.00;99701.80;1727997;83;21853;-78
2021/08/16 03:54:59;;;;;;;28.98;12.10;;;;;;;15.44;73.06;99697.48;1736833;82;21054;-78
2021/08/16 03:57:25;;;;;;;18.98;11.55;;;;;;;15.46;73.11;99700.77;1736943;82;20975;-78
2021/08/16 03:59:51;;;;;;;16.82;10.95;;;;;;;15.47;73.02;99694.36;1736760;82;21050;-77
2021/08/16 04:02:18;;;;;;;23.70;11.78;;;;;;;15.49;73.25;99703.04;1737089;82;20995;-78
2021/08/16 04:04:44;;;;;;;18.07;11.38;;;;;;;15.51;73.29;99710.07;1737061;82;21551;-77
2021/08/16 04:07:10;;;;;;;23.70;12.58;;;;;;;15.53;73.32;99705.28;1736902;82;21538;-78
2021/08/16 04:09:37;;;;;;;22.15;11.57;;;;;;;15.57;73.38;99707.84;1737208;82;20999;-78
2021/08/16 04:12:04;;;;;;;20.32;12.15;;;;;;;15.62;73.43;99713.40;1736256;82;21090;-77
2021/08/16 04:14:30;;;;;;;18.90;12.07;;;;;;;15.66;73.47;99706.00;1737036;82;21083;-78
2021/08/16 04:16:56;;;;;;;20.30;10.75;;;;;;;15.72;73.53;99705.66;1736744;82;21053;-77
2021/08/16 04:19:22;;;;;;;26.95;11.20;;;;;;;15.81;73.61;99707.02;1736895;82;21078;-77
2021/08/16 04:21:48;;;;;;;19.30;10.30;;;;;;;15.91;73.64;99712.70;1736341;82;20968;-78
2021/08/16 04:24:14;;;;;;;17.87;10.58;;;;;;;16.05;73.69;99709.36;1738489;82;20976;-78
2021/08/16 04:26:40;;;;;;;18.80;10.95;;;;;;;16.17;73.71;99707.60;1738423;82;20897;-78
2021/08/16 04:29:06;;;;;;;17.32;10.25;;;;;;;16.65;73.91;99706.34;1738219;82;21161;-77
2021/08/16 04:31:32;;;;;;;17.75;10.65;;;;;;;17.73;73.93;99707.09;1738304;82;21012;-77
2021/08/16 04:33:59;;;;;;;17.57;9.75;;;;;;;18.87;73.47;99703.15;1738498;82;20972;-77
2021/08/16 04:36:25;;;;;;;14.03;8.85;;;;;;;19.89;72.88;99708.47;1738249;82;20979;-78
2021/08/16 04:38:51;;;;;;;16.45;9.23;;;;;;;20.75;72.22;99698.85;1738443;82;20988;-78
2021/08/16 04:41:17;;;;;;;12.40;8.13;;;;;;;21.58;71.53;99695.65;1738565;82;21612;-78
2021/08/16 04:43:43;;;;;;;13.75;8.18;;;;;;;22.36;70.62;99689.42;1738518;82;20953;-78
2021/08/16 04:46:09;;;;;;;14.53;8.88;;;;;;;23.00;69.75;99688.34;1738373;82;20981;-78
2021/08/16 04:48:35;;;;;;;12.13;8.13;;;;;;;23.68;68.82;99685.16;1738425;82;20945;-78
2021/08/16 04:51:01;;;;;;;13.35;7.83;;;;;;;23.98;67.47;99682.96;1737903;82;20905;-78
2021/08/16 04:53:27;;;;;;;17.23;8.18;;;;;;;23.60;66.37;99681.64;1738014;82;22578;-78
2021/08/16 04:55:53;;;;;;;12.50;7.40;;;;;;;23.77;66.44;99670.46;1738370;82;20896;-78
2021/08/16 04:58:19;;;;;;;11.83;7.95;;;;;;;24.61;66.05;99676.53;1738382;82;21425;-78
2021/08/16 05:00:45;;;;;;;12.85;9.03;;;;;;;25.16;64.89;99683.08;1738180;82;20956;-78
2021/08/16 05:03:11;;;;;;;14.73;9.43;;;;;;;25.62;63.63;99690.41;1738495;82;20965;-78
2021/08/16 05:05:37;;;;;;;11.80;7.65;;;;;;;25.76;62.30;99693.30;1738434;82;21872;-78
2021/08/16 05:08:04;;;;;;;13.40;7.58;;;;;;;25.38;61.20;99691.39;1738053;82;20972;-78
2021/08/16 05:10:31;;;;;;;16.73;7.45;;;;;;;25.18;61.02;99685.53;1738400;82;21024;-78
2021/08/16 05:13:00;;;;;;;13.75;7.75;;;;;;;24.83;60.79;99694.20;1738296;82;20956;-78
2021/08/16 05:15:26;;;;;;;16.75;7.67;;;;;;;24.56;60.95;99693.72;1738409;82;20953;-78
2021/08/16 05:17:52;;;;;;;15.08;7.37;;;;;;;24.65;60.80;99689.88;1738365;82;21819;-78
2021/08/16 05:20:18;;;;;;;13.50;6.62;;;;;;;24.73;60.45;99693.40;1738323;82;20885;-78
2021/08/16 05:22:46;;;;;;;9.38;7.28;;;;;;;24.82;60.06;99683.52;1738267;82;20980;-78
2021/08/16 05:25:14;;;;;;;13.53;7.65;;;;;;;24.90;59.65;99680.25;1738123;82;20985;-78
2021/08/16 05:27:40;;;;;;;15.13;7.35;;;;;;;24.90;59.35;99680.25;1738687;82;21496;-78
2021/08/16 05:30:08;;;;;;;21.35;7.90;;;;;;;24.94;58.99;99681.32;1737917;82;22618;-78
2021/08/16 05:32:34;;;;;;;16.77;7.87;;;;;;;24.78;58.67;99687.90;1738211;82;21003;-78
2021/08/16 05:35:00;;;;;;;10.75;7.17;;;;;;;24.77;58.47;99691.75;1710422;83;21525;-78
2021/08/16 05:37:26;;;;;;;11.05;7.50;;;;;;;24.77;58.14;99692.53;1709014;83;21402;-78
2021/08/16 05:39:52;;;;;;;10.85;7.00;;;;;;;24.84;57.96;99698.53;1709765;83;21484;-78
2021/08/16 05:42:18;;;;;;;9.33;6.17;;;;;;;24.95;57.91;99688.93;1710655;83;22581;-79
2021/08/16 05:44:44;;;;;;;15.08;6.83;;;;;;;25.13;57.60;99688.28;1710732;83;20857;-78
2021/08/16 05:47:10;;;;;;;12.35;7.08;;;;;;;25.16;57.30;99689.08;1710495;83;20996;-79
2021/08/16 05:49:36;;;;;;;12.28;6.28;;;;;;;25.22;57.07;99695.61;1710659;83;21246;-79
2021/08/16 05:52:03;;;;;;;13.93;7.00;;;;;;;25.37;56.92;99693.88;1710691;83;21000;-79
2021/08/16 05:54:29;;;;;;;14.18;6.28;;;;;;;25.58;56.64;99696.75;1710614;83;22532;-78
2021/08/16 05:56:55;;;;;;;9.73;6.70;;;;;;;25.70;56.31;99694.45;1710581;83;20900;-79
2021/08/16 05:59:21;;;;;;;12.23;8.53;;;;;;;25.79;55.99;99699.00;1710249;83;21091;-79
2021/08/16 06:01:47;;;;;;;11.30;6.33;;;;;;;25.49;55.48;99698.41;1710660;83;21008;-79
2021/08/16 06:04:13;;;;;;;14.35;6.70;;;;;;;25.45;55.46;99694.61;1710720;83;21063;-79
2021/08/16 06:06:39;;;;;;;14.05;5.95;;;;;;;25.44;55.18;99688.33;1710700;83;21936;-79
2021/08/16 06:09:05;;;;;;;12.13;6.12;;;;;;;25.59;54.96;99687.44;1710187;83;21040;-78
2021/08/16 06:11:31;;;;;;;9.28;6.15;;;;;;;25.70;54.73;99688.98;1710859;83;21032;-79
2021/08/16 06:13:58;;;;;;;14.30;7.45;;;;;;;25.79;54.51;99690.02;1710577;83;21397;-79
2021/08/16 06:16:25;;;;;;;10.98;7.08;;;;;;;25.88;54.18;99689.64;1710774;83;21012;-79
2021/08/16 06:18:51;;;;;;;19.57;6.55;;;;;;;25.75;53.92;99692.50;1708487;82;21927;-79
2021/08/16 06:21:19;;;;;;;8.90;5.65;;;;;;;25.52;53.74;99691.86;1710880;82;21059;-78
2021/08/16 06:23:45;;;;;;;9.68;6.03;;;;;;;25.41;53.71;99693.55;1718258;82;20882;-79
2021/08/16 06:26:11;;;;;;;8.18;5.58;;;;;;;25.62;53.60;99693.69;1733643;82;21069;-79
2021/08/16 06:28:37;;;;;;;10.20;5.30;;;;;;;25.52;52.96;99700.05;1733705;82;21034;-79
2021/08/16 06:31:03;;;;;;;12.47;5.87;;;;;;;25.58;52.95;99703.58;1737139;82;21799;-79
2021/08/16 06:33:29;;;;;;;12.45;5.75;;;;;;;25.86;52.89;99704.70;1739932;81;21260;-79
2021/08/16 06:35:56;;;;;;;11.60;6.40;;;;;;;25.85;52.52;99706.62;1737596;81;21397;-79
2021/08/16 06:38:26;;;;;;;16.45;6.35;;;;;;;25.21;52.26;99706.80;1732114;82;21195;-79
2021/08/16 06:40:53;;;;;;;15.13;6.70;;;;;;;24.59;52.37;99706.82;1731632;81;21050;-79
2021/08/16 06:43:20;;;;;;;11.33;6.20;;;;;;;24.41;52.75;99710.15;1727394;83;21922;-79
2021/08/16 06:48:32;;;;;;;19.83;7.20;;;;;;;24.72;53.17;99708.94;1795854;77;28376;-76
2021/08/16 06:50:58;;;;;;;11.90;5.65;;;;;;;25.18;53.05;99709.55;1775472;78;20956;-78
2021/08/16 06:53:25;;;;;;;10.28;6.67;;;;;;;25.34;52.91;99708.34;1833930;78;22450;-79
2021/08/16 06:55:52;;;;;;;10.75;6.50;;;;;;;25.44;52.85;99706.66;1801515;78;21034;-79
2021/08/16 06:58:19;;;;;;;12.50;7.08;;;;;;;25.70;52.78;99716.30;1778663;80;21006;-79
2021/08/16 07:00:45;;;;;;;7.40;5.45;;;;;;;25.79;52.61;99707.77;1773080;79;21490;-79
2021/08/16 07:03:12;;;;;;;10.48;6.37;;;;;;;25.91;52.38;99709.56;1767124;80;20990;-79
2021/08/16 07:05:43;;;;;;;8.83;5.90;;;;;;;25.92;52.04;99702.18;1766682;81;22028;-78
2021/08/16 07:08:12;;;;;;;9.38;4.97;;;;;;;25.78;52.01;99700.67;1765792;79;20943;-78
2021/08/16 07:10:38;;;;;;;7.08;4.92;;;;;;;25.56;51.93;99696.20;1766048;81;21486;-78
2021/08/16 07:13:04;;;;;;;9.50;5.45;;;;;;;25.61;52.08;99703.83;1766474;81;21486;-79
2021/08/16 07:15:30;;;;;;;9.85;5.50;;;;;;;25.82;52.08;99701.73;1766190;81;20978;-79
2021/08/16 07:17:56;;;;;;;7.40;4.95;;;;;;;26.12;51.98;99698.70;1768350;79;21824;-79
2021/08/16 07:20:22;;;;;;;6.33;5.22;;;;;;;26.41;51.79;99689.13;1766847;79;20966;-79
2021/08/16 07:22:48;;;;;;;10.53;5.53;;;;;;;26.54;51.62;99690.33;1767068;78;21042;-79
2021/08/16 07:25:14;;;;;;;11.15;5.60;;;;;;;26.65;51.37;99687.19;1787355;78;21505;-78
2021/08/16 07:27:40;;;;;;;15.63;6.92;;;;;;;26.92;51.27;99696.16;1771588;79;21016;-79
2021/08/16 07:30:07;;;;;;;12.25;8.05;;;;;;;27.18;51.01;99681.02;1773571;79;22100;-79
2021/08/16 07:32:33;;;;;;;14.03;6.08;;;;;;;27.35;50.77;99683.77;1772795;79;21391;-79
2021/08/16 07:34:59;;;;;;;5.30;4.75;;;;;;;27.55;50.56;99687.02;1789881;80;21034;-79
2021/08/16 07:37:25;;;;;;;8.83;5.05;;;;;;;27.74;50.27;99682.88;1761191;80;20998;-78
2021/08/16 07:39:51;;;;;;;11.30;5.30;;;;;;;28.00;50.05;99685.45;1774022;80;21518;-79
2021/08/16 07:42:20;;;;;;;11.65;6.00;;;;;;;28.11;49.66;99689.63;1754433;81;21823;-78
2021/08/16 07:44:45;;;;;;;8.23;5.40;;;;;;;28.11;49.46;99688.26;1757010;81;20996;-79
2021/08/16 07:47:11;;;;;;;12.98;6.67;;;;;;;28.37;49.30;99690.52;1751518;81;20961;-78
2021/08/16 07:49:37;;;;;;;9.23;6.17;;;;;;;28.44;49.05;99686.81;1744719;81;21031;-78
2021/08/16 07:52:04;;;;;;;8.58;5.00;;;;;;;28.57;48.75;99671.72;1723093;82;21324;-79
2021/08/16 07:54:30;;;;;;;10.18;5.53;;;;;;;28.70;48.46;99675.62;1683924;84;21885;-78
2021/08/16 07:56:56;;;;;;;9.60;5.30;;;;;;;28.64;47.98;99683.69;1720179;82;21071;-79
2021/08/16 07:59:22;;;;;;;9.58;6.00;;;;;;;28.56;47.66;99683.02;1702622;84;21029;-78
2021/08/16 08:01:49;;;;;;;8.55;4.67;;;;;;;28.62;47.53;99683.16;1755174;80;21067;-78
2021/08/16 08:04:15;;;;;;;7.42;5.03;;;;;;;28.68;47.19;99688.81;1719933;82;21426;-79
2021/08/16 08:06:41;;;;;;;10.55;4.45;;;;;;;28.74;46.99;99681.56;1697481;82;21832;-78
2021/08/16 08:09:07;;;;;;;10.75;4.80;;;;;;;28.72;46.54;99674.73;1712536;82;21064;-79
2021/08/16 08:11:33;;;;;;;10.63;4.80;;;;;;;28.91;46.38;99677.36;1732088;80;21031;-79
2021/08/16 08:13:59;;;;;;;6.72;3.87;;;;;;;29.04;46.13;99680.07;1746978;81;21081;-79
2021/08/16 08:16:25;;;;;;;10.85;4.30;;;;;;;29.12;45.79;99683.47;1742178;81;21441;-79
2021/08/16 08:18:51;;;;;;;9.30;3.83;;;;;;;28.99;45.33;99677.42;1723800;81;22691;-79
2021/08/16 08:21:17;;;;;;;7.35;4.37;;;;;;;28.92;44.94;99676.25;1725219;82;21057;-79
2021/08/16 08:23:43;;;;;;;10.50;3.60;;;;;;;28.97;44.60;99674.19;1729354;82;21061;-79
2021/08/16 08:26:11;;;;;;;13.40;4.28;;;;;;;28.93;44.01;99681.41;1716452;81;21098;-79
2021/08/16 08:28:37;;;;;;;12.73;4.70;;;;;;;28.84;43.33;99683.27;1723686;81;20946;-79
2021/08/16 08:31:04;;;;;;;6.33;3.45;;;;;;;28.71;42.89;99683.53;1749508;81;21719;-79
2021/08/16 08:33:30;;;;;;;4.80;3.20;;;;;;;28.73;42.50;99670.88;1703237;81;21021;-79
2021/08/16 08:35:56;;;;;;;6.58;2.70;;;;;;;28.69;42.11;99673.98;1738997;82;21507;-80
2021/08/16 08:38:22;;;;;;;9.13;3.35;;;;;;;28.62;41.55;99670.25;1709069;82;21036;-80
2021/08/16 08:40:48;;;;;;;5.08;2.80;;;;;;;28.70;41.42;99667.38;1723806;83;21132;-80
2021/08/16 08:43:14;;;;;;;7.75;3.27;;;;;;;28.78;41.32;99665.85;1701152;83;21953;-80
2021/08/16 08:45:42;;;;;;;6.65;3.27;;;;;;;29.00;41.32;99662.58;1748218;81;20941;-82
2021/08/16 08:48:08;;;;;;;4.62;3.33;;;;;;;29.16;41.15;99663.88;1707107;82;21050;-81
2021/08/16 08:50:35;;;;;;;4.92;2.62;;;;;;;29.30;41.05;99661.11;1759808;80;21061;-81
2021/08/16 08:53:02;;;;;;;3.45;2.75;;;;;;;29.34;40.63;99666.79;1790973;80;21099;-82
2021/08/16 08:55:29;;;;;;;5.17;3.27;;;;;;;29.39;40.58;99664.72;1791631;79;21950;-82
2021/08/16 08:57:55;;;;;;;11.03;3.55;;;;;;;29.35;40.11;99662.34;1778784;80;20961;-82
2021/08/16 09:00:21;;;;;;;7.92;2.20;;;;;;;29.32;39.91;99658.84;1757157;81;21694;-82
2021/08/16 09:02:58;;;;;;;8.08;2.47;;;;;;;29.38;39.79;99665.05;1765832;80;21034;-82
2021/08/16 09:05:24;;;;;;;5.15;2.70;;;;;;;29.34;39.19;99659.36;1787593;80;21018;-82
2021/08/16 09:07:50;;;;;;;3.92;2.80;;;;;;;29.35;39.18;99658.22;1786195;80;21940;-82
2021/08/16 09:10:17;;;;;;;16.23;2.90;;;;;;;29.33;38.79;99661.03;1778359;80;21657;-82
2021/08/16 09:12:44;;;;;;;8.10;2.77;;;;;;;29.30;38.49;99661.11;1762672;80;21142;-82
2021/08/16 09:15:19;;;;;;;5.20;2.42;;;;;;;29.30;38.36;99658.36;1781908;80;20995;-82
2021/08/16 09:17:45;;;;;;;5.90;2.37;;;;;;;29.37;38.45;99655.17;1771817;80;21057;-82
2021/08/16 09:20:23;;;;;;;7.85;2.50;;;;;;;29.44;38.38;99655.55;1772100;80;21815;-82
2021/08/16 09:23:08;;;;;;;8.25;3.10;;;;;;;29.63;38.43;99664.39;1743239;81;21356;-82
2021/08/16 09:25:38;;;;;;;33.25;3.35;;;;;;;29.77;38.18;99665.13;1781776;80;21006;-82
2021/08/16 09:28:05;;;;;;;14.18;2.52;;;;;;;29.77;37.91;99669.25;1766087;80;21022;-82
2021/08/16 09:30:40;;;;;;;4.50;2.42;;;;;;;29.66;37.59;99671.45;1769169;80;20927;-82
2021/08/16 09:33:19;;;;;;;6.72;2.20;;;;;;;29.55;37.20;99674.23;1767629;80;21739;-81
2021/08/16 09:35:59;;;;;;;9.73;2.42;;;;;;;29.54;36.91;99667.10;1757202;80;21252;-82
2021/08/16 09:38:37;;;;;;;11.30;2.60;;;;;;;29.51;36.73;99669.66;1764205;79;20974;-82
2021/08/16 09:41:07;;;;;;;11.18;2.52;;;;;;;29.52;36.49;99665.80;1756703;81;21014;-82
2021/08/16 09:43:33;;;;;;;12.75;4.50;;;;;;;29.54;36.17;99667.10;1761594;80;21014;-82
2021/08/16 09:46:00;;;;;;;8.88;4.65;;;;;;;29.50;36.08;99663.34;1756633;81;21893;-82
2021/08/16 09:48:26;;;;;;;9.00;2.52;;;;;;;29.66;36.24;99672.04;1768301;80;21439;-81
2021/08/16 09:50:56;;;;;;;3.08;2.50;;;;;;;29.71;36.22;99663.64;1774992;80;21454;-81
2021/08/16 09:53:24;;;;;;;8.15;3.02;;;;;;;29.75;36.07;99653.65;1755526;81;21085;-82
2021/08/16 09:56:01;;;;;;;5.75;3.10;;;;;;;29.62;35.98;99661.42;1756478;81;21481;-81
2021/08/16 09:58:23;;;;;;;6.25;2.83;;;;;;;29.50;36.08;99648.80;1755150;81;22654;-81
2021/08/16 10:00:52;;;;;;;10.53;3.20;;;;;;;29.46;36.00;99642.30;1777200;80;20998;-81
2021/08/16 10:03:18;;;;;;;3.67;2.55;;;;;;;29.39;35.65;99639.98;1773410;80;21015;-80
2021/08/16 10:05:46;;;;;;;5.22;2.35;;;;;;;29.43;35.78;99638.80;1766063;80;21022;-81
2021/08/16 10:08:25;;;;;;;7.78;2.60;;;;;;;29.65;35.85;99631.92;1767237;79;21008;-81
2021/08/16 10:10:56;;;;;;;4.92;2.55;;;;;;;29.90;35.89;99633.22;1772795;80;22575;-82
2021/08/16 10:13:22;;;;;;;4.67;1.90;;;;;;;30.00;35.80;99625.52;1768413;80;21031;-82
2021/08/16 10:15:57;;;;;;;6.60;2.40;;;;;;;29.99;35.34;99630.75;1790395;80;20987;-82
2021/08/16 10:18:26;;;;;;;7.20;2.65;;;;;;;30.09;35.45;99620.03;1782593;80;21057;-82
2021/08/16 10:20:52;;;;;;;3.55;2.08;;;;;;;30.15;35.06;99618.19;1743774;81;21507;-82
2021/08/16 10:23:24;;;;;;;2.45;1.90;;;;;;;29.99;34.86;99621.13;1757711;80;22464;-81
2021/08/16 10:25:52;;;;;;;4.30;2.22;;;;;;;29.90;34.82;99620.29;1762538;80;21007;-82
2021/08/16 10:28:28;;;;;;;5.97;2.65;;;;;;;30.08;34.80;99621.97;1756535;80;21449;-82
2021/08/16 10:30:56;;;;;;;5.55;2.37;;;;;;;30.27;34.55;99607.14;1762624;78;21017;-81
2021/08/16 10:33:22;;;;;;;21.05;2.98;;;;;;;30.40;34.36;99608.98;1757154;81;21035;-81
2021/08/16 10:35:49;;;;;;;5.92;2.58;;;;;;;30.29;34.09;99599.40;1759440;80;21966;-81
2021/08/16 10:38:16;;;;;;;13.00;2.35;;;;;;;29.99;34.06;99606.56;1757033;81;20966;-81
2021/08/16 10:40:46;;;;;;;13.68;2.67;;;;;;;29.79;34.04;99612.03;1757204;81;21057;-81
2021/08/16 10:43:13;;;;;;;30.15;4.50;;;;;;;29.84;34.27;99606.97;1754460;81;21009;-82
2021/08/16 10:45:49;;;;;;;11.30;2.52;;;;;;;30.14;34.40;99604.20;1757443;81;21514;-81
2021/08/16 10:48:29;;;;;;;12.37;2.92;;;;;;;30.34;34.08;99594.55;1757363;81;21800;-81
2021/08/16 10:51:07;;;;;;;12.20;3.22;;;;;;;30.51;34.05;99593.80;1756988;81;20994;-81
2021/08/16 10:53:48;;;;;;;6.03;2.55;;;;;;;30.59;33.96;99588.31;1757466;81;21489;-81
2021/08/16 10:56:22;;;;;;;6.03;2.37;;;;;;;30.53;33.81;99584.11;1757650;81;20993;-81
2021/08/16 10:58:49;;;;;;;6.10;2.50;;;;;;;30.54;34.21;99576.66;1753697;81;21068;-81
2021/08/16 11:01:31;;;;;;;4.25;2.37;;;;;;;30.45;34.01;99567.56;1757981;81;22418;-81
2021/08/16 11:04:05;;;;;;;7.00;2.85;;;;;;;30.21;34.22;99578.42;1757484;81;21026;-81
2021/08/16 11:06:31;;;;;;;4.40;2.60;;;;;;;30.08;34.38;99570.30;1757713;81;21508;-81
2021/08/16 11:09:03;;;;;;;7.15;2.92;;;;;;;30.16;34.46;99570.30;1757559;81;21006;-81
2021/08/16 11:11:35;;;;;;;4.70;2.60;;;;;;;30.05;34.53;99584.09;1757833;81;20974;-81
2021/08/16 11:14:10;;;;;;;5.08;2.80;;;;;;;29.86;34.78;99591.80;1757785;81;21756;-81
2021/08/16 11:16:48;;;;;;;5.30;2.50;;;;;;;29.75;34.92;99593.17;1756822;81;20894;-81
2021/08/16 11:19:15;;;;;;;7.78;3.02;;;;;;;29.61;35.15;99595.20;1760101;80;21066;-81
2021/08/16 11:21:42;;;;;;;5.22;2.92;;;;;;;29.49;35.42;99598.52;1770063;80;20996;-82
2021/08/16 11:24:09;;;;;;;4.87;2.80;;;;;;;29.36;35.58;99597.22;1766051;80;20901;-81
2021/08/16 11:26:35;;;;;;;6.50;3.33;;;;;;;29.23;35.82;99596.95;1770851;80;22698;-81
2021/08/16 11:29:04;;;;;;;5.58;2.75;;;;;;;29.18;36.08;99590.20;1701830;80;21125;-81